createdAt,value
2023-05-10T00:00:14.492Z,11.00
2023-05-10T00:03:02.761Z,9.00
2023-05-10T00:05:30.717Z,10.00
2023-05-10T00:07:58.589Z,8.50
2023-05-10T00:10:26.500Z,9.00
2023-05-10T00:12:54.614Z,9.50
2023-05-10T00:15:22.748Z,9.50
2023-05-10T00:17:50.821Z,8.00
2023-05-10T00:20:19.340Z,9.00
2023-05-10T00:22:47.513Z,10.00
2023-05-10T00:25:15.445Z,9.00
2023-05-10T00:27:43.323Z,9.00
2023-05-10T00:30:12.835Z,10.33
2023-05-10T00:32:40.737Z,10.00
2023-05-10T00:35:09.166Z,9.00
2023-05-10T00:37:36.979Z,10.00
2023-05-10T00:40:06.099Z,10.00
2023-05-10T00:42:34.514Z,9.00
2023-05-10T00:45:02.727Z,9.00
2023-05-10T00:50:01.822Z,9.00
2023-05-10T00:52:31.298Z,12.00
2023-05-10T00:55:01.279Z,8.50
2023-05-10T00:57:29.707Z,8.33
2023-05-10T00:59:58.881Z,8.00
2023-05-10T01:02:26.811Z,6.00
2023-05-10T01:04:55.551Z,9.00
2023-05-10T01:07:23.417Z,7.00
2023-05-10T01:09:51.415Z,10.00
2023-05-10T01:12:19.528Z,9.00
2023-05-10T01:14:48.146Z,9.00
2023-05-10T01:17:17.368Z,8.00
2023-05-10T01:19:45.437Z,7.00
2023-05-10T01:23:10.704Z,9.67
2023-05-10T01:26:07.499Z,8.50
2023-05-10T01:29:13.222Z,8.00
2023-05-10T01:32:08.027Z,10.00
2023-05-10T01:34:43.727Z,8.00
2023-05-10T01:37:22.008Z,9.00
2023-05-10T01:40:16.360Z,8.67
2023-05-10T01:42:51.620Z,6.00
2023-05-10T01:45:42.819Z,9.00
2023-05-10T01:48:12.030Z,8.00
2023-05-10T01:50:46.434Z,8.00
2023-05-10T01:53:19.947Z,8.50
2023-05-10T01:55:53.709Z,10.00
2023-05-10T01:58:26.289Z,9.00
2023-05-10T02:00:55.117Z,11.00
2023-05-10T02:03:26.003Z,12.50
2023-05-10T02:05:57.215Z,15.00
2023-05-10T02:08:26.396Z,11.00
2023-05-10T02:10:57.874Z,12.00
2023-05-10T02:13:28.578Z,12.00
2023-05-10T02:15:58.687Z,9.00
2023-05-10T02:18:28.746Z,11.67
2023-05-10T02:20:59.140Z,12.00
2023-05-10T02:23:27.590Z,10.00
2023-05-10T02:25:58.075Z,11.00
2023-05-10T02:28:28.446Z,12.00
2023-05-10T02:30:57.856Z,13.00
2023-05-10T02:33:27.671Z,11.00
2023-05-10T02:35:56.731Z,10.50
2023-05-10T02:38:26.827Z,12.00
2023-05-10T02:40:55.660Z,11.50
2023-05-10T02:43:25.626Z,10.00
2023-05-10T02:45:53.716Z,9.00
2023-05-10T02:48:21.756Z,8.50
2023-05-10T02:50:53.530Z,11.00
2023-05-10T02:53:32.996Z,9.00
2023-05-10T02:56:08.190Z,8.50
2023-05-10T02:58:36.653Z,8.00
2023-05-10T03:01:04.976Z,10.00
2023-05-10T03:03:33.141Z,9.00
2023-05-10T03:06:01.414Z,7.00
2023-05-10T03:08:30.606Z,11.00
2023-05-10T03:11:40.851Z,9.00
2023-05-10T03:14:30.513Z,10.00
2023-05-10T03:17:23.344Z,10.00
2023-05-10T03:19:56.811Z,4.50
2023-05-10T03:22:31.683Z,8.00
2023-05-10T03:25:06.820Z,11.50
2023-05-10T03:27:37.566Z,9.00
2023-05-10T03:30:12.116Z,9.00
2023-05-10T03:32:40.928Z,9.00
2023-05-10T03:35:14.254Z,4.00
2023-05-10T03:37:42.530Z,10.00
2023-05-10T03:40:10.628Z,7.00
2023-05-10T03:42:40.001Z,9.00
2023-05-10T03:45:08.795Z,9.00
2023-05-10T03:47:36.856Z,12.00
2023-05-10T03:50:06.021Z,10.00
2023-05-10T03:52:34.492Z,9.00
2023-05-10T03:55:03.985Z,15.00
2023-05-10T03:57:32.012Z,27.67
2023-05-10T03:59:59.988Z,32.00
2023-05-10T04:02:28.255Z,28.00
2023-05-10T04:04:56.378Z,36.00
2023-05-10T04:07:24.335Z,35.00
2023-05-10T04:09:52.206Z,39.00
2023-05-10T04:12:20.032Z,40.00
2023-05-10T04:14:47.878Z,40.00
2023-05-10T04:17:15.784Z,42.00
2023-05-10T04:19:43.627Z,42.00
2023-05-10T04:22:11.914Z,43.50
2023-05-10T04:24:39.796Z,46.50
2023-05-10T04:27:07.643Z,41.50
2023-05-10T04:29:35.462Z,47.00
2023-05-10T04:32:04.697Z,50.00
2023-05-10T04:34:35.268Z,44.00
2023-05-10T04:37:03.166Z,40.00
2023-05-10T04:39:31.061Z,44.00
2023-05-10T04:41:58.969Z,38.00
2023-05-10T04:44:26.800Z,37.50
2023-05-10T04:46:54.663Z,39.00
2023-05-10T04:49:22.864Z,33.50
2023-05-10T04:51:50.762Z,27.50
2023-05-10T04:54:18.664Z,30.00
2023-05-10T04:56:46.838Z,16.00
2023-05-10T04:59:15.297Z,18.00
2023-05-10T05:01:43.234Z,18.00
2023-05-10T05:04:11.387Z,17.50
2023-05-10T05:06:39.292Z,16.00
2023-05-10T05:09:07.156Z,16.00
2023-05-10T05:11:35.009Z,19.00
2023-05-10T05:14:02.970Z,19.00
2023-05-10T05:16:32.597Z,19.00
2023-05-10T05:19:00.985Z,17.50
2023-05-10T05:21:29.940Z,15.50
2023-05-10T05:23:57.787Z,13.00
2023-05-10T05:26:25.805Z,14.00
2023-05-10T05:28:55.608Z,16.00
2023-05-10T05:31:23.604Z,14.00
2023-05-10T05:33:51.513Z,16.00
2023-05-10T05:36:19.464Z,13.00
2023-05-10T05:38:47.353Z,17.00
2023-05-10T05:41:15.182Z,14.00
2023-05-10T05:43:43.164Z,12.00
2023-05-10T05:46:11.179Z,12.00
2023-05-10T05:48:39.118Z,14.00
2023-05-10T05:51:07.429Z,10.00
2023-05-10T05:53:35.530Z,13.00
2023-05-10T05:56:03.635Z,9.00
2023-05-10T05:58:31.501Z,11.00
2023-05-10T06:00:59.395Z,10.00
2023-05-10T06:03:27.367Z,12.50
2023-05-10T06:05:55.327Z,13.00
2023-05-10T06:08:23.574Z,10.50
2023-05-10T06:10:51.470Z,9.00
2023-05-10T06:13:19.389Z,10.00
2023-05-10T06:15:47.365Z,11.50
2023-05-10T06:18:15.386Z,13.50
2023-05-10T06:20:44.050Z,9.00
2023-05-10T06:23:12.108Z,11.00
2023-05-10T06:25:40.279Z,7.33
2023-05-10T06:28:08.229Z,9.00
2023-05-10T06:30:37.615Z,8.00
2023-05-10T06:33:05.896Z,7.00
2023-05-10T06:35:34.611Z,10.00
2023-05-10T06:38:02.597Z,11.00
2023-05-10T06:42:58.440Z,10.00
2023-05-10T06:45:26.372Z,9.50
2023-05-10T06:47:54.558Z,9.50
2023-05-10T06:50:22.489Z,8.00
2023-05-10T06:52:52.310Z,10.00
2023-05-10T06:55:21.126Z,9.00
2023-05-10T06:57:48.959Z,10.00
2023-05-10T07:00:17.782Z,9.00
2023-05-10T07:02:46.312Z,9.50
2023-05-10T07:05:15.272Z,11.00
2023-05-10T07:07:43.462Z,10.00
2023-05-10T07:10:11.615Z,10.00
2023-05-10T07:12:39.721Z,11.00
2023-05-10T07:15:08.467Z,7.00
2023-05-10T07:17:36.465Z,7.00
2023-05-10T07:20:04.836Z,8.00
2023-05-10T07:22:32.881Z,7.00
2023-05-10T07:25:00.841Z,7.00
2023-05-10T07:27:28.686Z,9.00
2023-05-10T07:29:57.595Z,7.00
2023-05-10T07:32:25.599Z,6.00
2023-05-10T07:34:53.749Z,6.00
2023-05-10T07:37:21.695Z,5.00
2023-05-10T07:39:49.526Z,5.00
2023-05-10T07:42:17.346Z,5.00
2023-05-10T07:44:45.189Z,5.00
2023-05-10T07:47:13.054Z,3.50
2023-05-10T07:49:41.016Z,3.00
2023-05-10T07:52:09.005Z,3.00
2023-05-10T07:54:37.086Z,5.00
2023-05-10T07:57:04.967Z,5.00
2023-05-10T07:59:34.101Z,4.00
2023-05-10T08:02:02.017Z,5.00
2023-05-10T08:04:29.970Z,2.67
2023-05-10T08:06:57.841Z,5.00
2023-05-10T08:09:25.826Z,4.00
2023-05-10T08:11:53.868Z,5.67
2023-05-10T08:14:21.721Z,3.00
2023-05-10T08:16:49.569Z,4.00
2023-05-10T08:19:20.132Z,3.00
2023-05-10T08:21:48.796Z,2.00
2023-05-10T08:24:16.997Z,4.00
2023-05-10T08:26:44.958Z,4.00
2023-05-10T08:29:12.861Z,3.00
2023-05-10T08:31:40.850Z,4.00
2023-05-10T08:34:09.512Z,3.00
2023-05-10T08:36:39.172Z,4.00
2023-05-10T08:39:13.544Z,3.67
2023-05-10T08:41:51.472Z,2.00
2023-05-10T08:44:20.318Z,4.00
2023-05-10T08:46:54.253Z,3.00
2023-05-10T08:49:22.826Z,4.00
2023-05-10T08:51:55.919Z,3.00
2023-05-10T08:54:24.445Z,5.00
2023-05-10T08:56:54.384Z,3.50
2023-05-10T08:59:22.632Z,3.00
2023-05-10T09:01:52.464Z,3.33
2023-05-10T09:04:22.225Z,4.00
2023-05-10T09:06:50.496Z,3.00
2023-05-10T09:09:20.796Z,4.00
2023-05-10T09:11:49.259Z,3.00
2023-05-10T09:14:18.531Z,4.00
2023-05-10T09:16:47.908Z,4.00
2023-05-10T09:19:15.925Z,3.00
2023-05-10T09:21:44.452Z,3.00
2023-05-10T09:24:13.285Z,4.00
2023-05-10T09:26:50.933Z,3.00
2023-05-10T09:29:19.084Z,3.50
2023-05-10T09:31:47.866Z,3.00
2023-05-10T09:34:30.529Z,3.00
2023-05-10T09:37:05.450Z,4.00
2023-05-10T09:39:37.236Z,4.00
2023-05-10T09:42:10.096Z,2.00
2023-05-10T09:44:39.163Z,3.00
2023-05-10T09:47:07.001Z,2.50
2023-05-10T09:49:35.904Z,3.00
2023-05-10T09:52:05.545Z,4.00
2023-05-10T09:54:34.732Z,2.00
2023-05-10T09:57:02.603Z,3.00
2023-05-10T09:59:30.658Z,2.00
2023-05-10T10:02:00.708Z,3.00
2023-05-10T10:04:29.604Z,2.50
2023-05-10T10:07:06.060Z,2.67
2023-05-10T10:09:35.468Z,3.00
2023-05-10T10:12:04.904Z,4.00
2023-05-10T10:14:33.052Z,4.00
2023-05-10T10:19:34.689Z,3.00
2023-05-10T10:22:02.502Z,2.50
2023-05-10T10:24:30.466Z,3.00
2023-05-10T10:27:06.441Z,3.33
2023-05-10T10:29:49.183Z,4.00
2023-05-10T10:32:31.356Z,2.00
2023-05-10T10:35:00.229Z,3.33
2023-05-10T10:37:45.484Z,2.00
2023-05-10T10:40:33.584Z,2.00
2023-05-10T10:43:27.844Z,4.00
2023-05-10T10:46:15.184Z,3.50
2023-05-10T10:48:49.597Z,3.00
2023-05-10T10:51:17.661Z,1.00
2023-05-10T10:53:45.740Z,2.50
2023-05-10T10:56:16.388Z,3.50
2023-05-10T10:58:54.831Z,2.50
2023-05-10T11:01:22.947Z,4.00
2023-05-10T11:03:59.973Z,5.00
2023-05-10T11:06:36.165Z,4.00
2023-05-10T11:09:12.588Z,4.00
2023-05-10T11:11:53.083Z,3.00
2023-05-10T11:14:23.503Z,2.00
2023-05-10T11:16:52.157Z,3.00
2023-05-10T11:19:20.628Z,2.67
2023-05-10T11:22:12.733Z,3.00
2023-05-10T11:24:40.735Z,2.00
2023-05-10T11:27:09.585Z,2.50
2023-05-10T11:29:37.529Z,3.50
2023-05-10T11:32:09.152Z,4.00
2023-05-10T11:34:37.137Z,4.00
2023-05-10T11:37:05.005Z,2.00
2023-05-10T11:39:34.593Z,2.00
2023-05-10T11:42:02.664Z,3.00
2023-05-10T11:44:32.494Z,2.00
2023-05-10T11:47:01.811Z,3.00
2023-05-10T11:49:29.975Z,1.00
2023-05-10T11:52:08.339Z,4.00
2023-05-10T11:54:36.626Z,4.00
2023-05-10T11:57:05.512Z,2.50
2023-05-10T11:59:33.569Z,3.33
2023-05-10T12:02:01.862Z,2.00
2023-05-10T12:04:30.843Z,4.00
2023-05-10T12:06:59.054Z,2.00
2023-05-10T12:09:39.434Z,3.33
2023-05-10T12:12:11.191Z,3.00
2023-05-10T12:14:39.258Z,3.00
2023-05-10T12:17:07.214Z,0.00
2023-05-10T12:19:39.719Z,2.00
2023-05-10T12:22:07.629Z,0.00
2023-05-10T12:24:36.634Z,3.00
2023-05-10T12:27:09.615Z,4.00
2023-05-10T12:29:37.732Z,3.33
2023-05-10T12:32:05.664Z,3.00
2023-05-10T12:34:36.459Z,3.50
2023-05-10T12:37:05.147Z,4.00
2023-05-10T12:39:44.754Z,2.00
2023-05-10T12:42:15.082Z,4.00
2023-05-10T12:44:43.076Z,3.50
2023-05-10T12:47:12.024Z,1.67
2023-05-10T12:49:39.876Z,2.33
2023-05-10T12:52:07.796Z,2.00
2023-05-10T12:54:36.223Z,4.00
2023-05-10T12:57:04.067Z,4.50
2023-05-10T12:59:32.064Z,5.50
2023-05-10T13:01:59.985Z,3.50
2023-05-10T13:04:27.959Z,3.00
2023-05-10T13:06:59.813Z,2.50
2023-05-10T13:09:29.597Z,3.00
2023-05-10T13:11:57.514Z,2.00
2023-05-10T13:14:25.823Z,2.00
2023-05-10T13:16:53.833Z,2.00
2023-05-10T13:19:21.888Z,2.00
2023-05-10T13:21:49.859Z,3.33
2023-05-10T13:24:18.617Z,4.00
2023-05-10T13:26:46.592Z,3.00
2023-05-10T13:29:14.529Z,3.00
2023-05-10T13:31:42.576Z,3.00
2023-05-10T13:34:10.758Z,4.50
2023-05-10T13:36:39.209Z,3.00
2023-05-10T13:39:07.428Z,4.00
2023-05-10T13:41:35.462Z,4.00
2023-05-10T13:44:03.438Z,4.00
2023-05-10T13:46:32.059Z,3.00
2023-05-10T13:49:00.056Z,3.00
2023-05-10T13:51:27.934Z,3.00
2023-05-10T13:53:55.787Z,3.00
2023-05-10T13:56:23.700Z,3.00
2023-05-10T13:58:51.642Z,3.00
2023-05-10T14:01:19.578Z,2.00
2023-05-10T14:03:47.673Z,2.50
2023-05-10T14:06:15.743Z,2.50
2023-05-10T14:08:43.657Z,3.00
2023-05-10T14:11:11.693Z,5.00
2023-05-10T14:13:39.611Z,3.00
2023-05-10T14:16:07.828Z,2.33
2023-05-10T14:18:35.759Z,2.00
2023-05-10T14:21:04.590Z,3.00
2023-05-10T14:23:32.400Z,0.00
2023-05-10T14:26:00.245Z,3.00
2023-05-10T14:28:28.107Z,2.50
2023-05-10T14:30:56.193Z,2.00
2023-05-10T14:33:24.081Z,4.00
2023-05-10T14:35:52.179Z,3.00
2023-05-10T14:38:20.916Z,2.00
2023-05-10T14:40:49.032Z,3.00
2023-05-10T14:43:17.364Z,3.00
2023-05-10T14:45:46.032Z,2.00
2023-05-10T14:48:16.513Z,3.33
2023-05-10T14:50:45.299Z,2.00
2023-05-10T14:53:13.130Z,3.00
2023-05-10T14:55:41.040Z,2.00
2023-05-10T14:58:08.964Z,3.00
2023-05-10T15:00:36.842Z,4.00
2023-05-10T15:03:05.353Z,4.00
2023-05-10T15:05:33.850Z,2.00
2023-05-10T15:08:02.174Z,3.00
2023-05-10T15:10:30.872Z,3.33
2023-05-10T15:13:00.222Z,3.00
2023-05-10T15:15:28.146Z,4.50
2023-05-10T15:17:55.997Z,3.00
2023-05-10T15:20:23.938Z,3.00
2023-05-10T15:22:51.994Z,3.00
2023-05-10T15:25:21.066Z,5.00
2023-05-10T15:27:49.006Z,3.50
2023-05-10T15:30:16.898Z,4.00
2023-05-10T15:32:44.804Z,2.00
2023-05-10T15:35:12.803Z,2.00
2023-05-10T15:37:40.647Z,2.50
2023-05-10T15:40:08.905Z,3.00
2023-05-10T15:42:49.862Z,2.67
2023-05-10T15:45:18.237Z,2.00
2023-05-10T15:47:46.487Z,4.00
2023-05-10T15:50:16.162Z,3.00
2023-05-10T15:52:44.048Z,3.00
2023-05-10T15:55:15.088Z,3.00
2023-05-10T15:57:45.087Z,2.00
2023-05-10T16:00:13.839Z,3.00
2023-05-10T16:02:42.525Z,3.00
2023-05-10T16:05:11.054Z,4.00
2023-05-10T16:07:40.435Z,3.50
2023-05-10T16:10:10.618Z,3.50
2023-05-10T16:12:39.133Z,3.00
2023-05-10T16:15:07.684Z,5.50
2023-05-10T16:17:35.646Z,4.00
2023-05-10T16:20:03.979Z,4.00
2023-05-10T16:22:31.924Z,4.00
2023-05-10T16:25:00.056Z,4.00
2023-05-10T16:27:30.475Z,3.00
2023-05-10T16:29:58.344Z,4.50
2023-05-10T16:32:26.301Z,4.00
2023-05-10T16:34:54.219Z,4.00
2023-05-10T16:37:22.185Z,4.00
2023-05-10T16:39:50.069Z,3.00
2023-05-10T16:42:18.241Z,4.00
2023-05-10T16:44:46.200Z,2.50
2023-05-10T16:47:14.056Z,4.00
2023-05-10T16:49:42.342Z,3.50
2023-05-10T16:52:10.250Z,5.00
2023-05-10T16:54:38.157Z,3.00
2023-05-10T16:57:06.626Z,4.00
2023-05-10T16:59:34.679Z,5.00
2023-05-10T17:02:02.627Z,2.00
2023-05-10T17:04:30.898Z,4.00
2023-05-10T17:06:58.936Z,4.00
2023-05-10T17:09:26.804Z,2.00
2023-05-10T17:11:54.669Z,3.00
2023-05-10T17:14:22.631Z,3.00
2023-05-10T17:16:52.864Z,4.00
2023-05-10T17:19:20.958Z,4.00
2023-05-10T17:21:49.287Z,4.00
2023-05-10T17:24:17.238Z,4.50
2023-05-10T17:26:45.794Z,3.00
2023-05-10T17:29:16.637Z,3.50
2023-05-10T17:31:44.600Z,3.00
2023-05-10T17:34:12.586Z,3.00
2023-05-10T17:36:40.537Z,4.00
2023-05-10T17:39:08.427Z,4.00
2023-05-10T17:41:36.268Z,3.00
2023-05-10T17:44:04.145Z,4.00
2023-05-10T17:46:32.994Z,3.00
2023-05-10T17:49:00.899Z,4.50
2023-05-10T17:51:28.987Z,4.67
2023-05-10T17:53:56.816Z,5.00
2023-05-10T17:56:24.896Z,5.00
2023-05-10T17:58:53.023Z,5.50
2023-05-10T18:01:21.234Z,6.00
2023-05-10T18:03:49.821Z,4.00
2023-05-10T18:06:17.904Z,3.50
2023-05-10T18:08:45.798Z,4.50
2023-05-10T18:11:13.818Z,6.00
2023-05-10T18:13:41.892Z,6.00
2023-05-10T18:16:12.894Z,5.00
2023-05-10T18:18:40.825Z,5.00
2023-05-10T18:21:08.747Z,4.50
2023-05-10T18:23:36.713Z,4.00
2023-05-10T18:26:04.751Z,4.00
2023-05-10T18:28:32.599Z,5.00
2023-05-10T18:31:00.600Z,3.00
2023-05-10T18:33:28.698Z,5.00
2023-05-10T18:35:57.006Z,5.50
2023-05-10T18:38:24.931Z,4.00
2023-05-10T18:40:52.859Z,5.00
2023-05-10T18:43:20.981Z,4.50
2023-05-10T18:45:50.213Z,4.00
2023-05-10T18:48:18.344Z,6.00
2023-05-10T18:50:46.206Z,6.00
2023-05-10T18:53:14.201Z,7.00
2023-05-10T18:55:44.206Z,6.00
2023-05-10T18:58:12.842Z,4.67
2023-05-10T19:00:41.066Z,5.50
2023-05-10T19:03:08.918Z,7.00
2023-05-10T19:05:36.815Z,6.00
2023-05-10T19:08:05.276Z,4.67
2023-05-10T19:10:33.162Z,6.00
2023-05-10T19:13:01.013Z,7.00
2023-05-10T19:15:28.872Z,6.00
2023-05-10T19:18:22.163Z,7.00
2023-05-10T19:20:50.120Z,5.50
2023-05-10T19:23:17.988Z,6.00
2023-05-10T19:25:47.052Z,6.00
2023-05-10T19:28:15.149Z,6.00
2023-05-10T19:30:43.021Z,5.50
2023-05-10T19:33:12.714Z,6.00
2023-05-10T19:35:40.818Z,3.33
2023-05-10T19:38:08.761Z,5.00
2023-05-10T19:40:36.923Z,7.00
2023-05-10T19:43:04.894Z,2.00
2023-05-10T19:45:38.985Z,7.00
2023-05-10T19:48:07.008Z,6.00
2023-05-10T19:50:34.871Z,6.00
2023-05-10T19:53:02.754Z,7.50
2023-05-10T19:55:32.225Z,6.00
2023-05-10T19:58:02.595Z,7.00
2023-05-10T20:00:31.638Z,7.00
2023-05-10T20:02:59.801Z,7.00
2023-05-10T20:05:27.710Z,7.00
2023-05-10T20:07:55.580Z,7.00
2023-05-10T20:10:25.731Z,6.50
2023-05-10T20:12:54.910Z,7.00
2023-05-10T20:15:23.711Z,7.00
2023-05-10T20:17:53.318Z,8.00
2023-05-10T20:20:22.099Z,7.00
2023-05-10T20:22:50.535Z,6.00
2023-05-10T20:25:19.290Z,8.00
2023-05-10T20:27:47.254Z,6.67
2023-05-10T20:30:15.605Z,7.00
2023-05-10T20:32:43.785Z,8.00
2023-05-10T20:35:12.020Z,7.00
2023-05-10T20:37:39.933Z,9.00
2023-05-10T20:40:08.642Z,4.50
2023-05-10T20:42:36.519Z,5.00
2023-05-10T20:45:04.856Z,7.00
2023-05-10T20:47:33.281Z,7.00
2023-05-10T20:50:01.162Z,5.00
2023-05-10T20:52:29.081Z,6.00
2023-05-10T20:54:56.955Z,6.00
2023-05-10T20:57:24.863Z,5.50
2023-05-10T20:59:53.019Z,6.00
2023-05-10T21:02:20.911Z,6.00
2023-05-10T21:04:48.821Z,6.00
2023-05-10T21:07:16.658Z,6.00
2023-05-10T21:09:44.557Z,5.00
2023-05-10T21:12:13.486Z,5.50
2023-05-10T21:14:43.089Z,6.33
2023-05-10T21:17:10.953Z,6.00
2023-05-10T21:19:38.850Z,6.50
2023-05-10T21:22:06.754Z,6.00
2023-05-10T21:24:35.232Z,5.00
2023-05-10T21:27:03.145Z,5.00
2023-05-10T21:29:31.023Z,6.00
2023-05-10T21:31:58.974Z,6.00
2023-05-10T21:34:26.943Z,8.00
2023-05-10T21:36:54.905Z,7.00
2023-05-10T21:39:22.775Z,6.00
2023-05-10T21:41:50.591Z,6.00
2023-05-10T21:44:18.581Z,5.00
2023-05-10T21:46:46.467Z,7.00
2023-05-10T21:49:14.366Z,9.00
2023-05-10T21:51:42.228Z,5.50
2023-05-10T21:54:10.076Z,6.00
2023-05-10T21:56:38.147Z,6.00
2023-05-10T21:59:06.353Z,6.00
2023-05-10T22:01:34.259Z,4.00
2023-05-10T22:04:02.270Z,5.00
2023-05-10T22:06:30.156Z,5.00
2023-05-10T22:08:58.163Z,5.00
2023-05-10T22:11:27.614Z,8.00
2023-05-10T22:13:55.580Z,7.00
2023-05-10T22:16:24.757Z,7.00
2023-05-10T22:18:54.575Z,6.00
2023-05-10T22:21:22.710Z,6.50
2023-05-10T22:23:50.542Z,5.33
2023-05-10T22:26:18.615Z,5.50
2023-05-10T22:28:46.486Z,5.50
2023-05-10T22:31:14.462Z,7.00
2023-05-10T22:33:42.533Z,6.00
2023-05-10T22:36:10.568Z,6.00
2023-05-10T22:38:38.487Z,6.00
2023-05-10T22:41:06.784Z,7.00
2023-05-10T22:43:34.722Z,6.00
2023-05-10T22:46:02.600Z,7.00
2023-05-10T22:48:34.225Z,6.00
2023-05-10T22:53:30.309Z,6.50
2023-05-10T22:55:58.410Z,6.67
2023-05-10T22:58:26.969Z,7.00
2023-05-10T23:00:55.420Z,7.00
2023-05-10T23:03:23.381Z,7.00
2023-05-10T23:05:51.223Z,7.00
2023-05-10T23:08:19.063Z,6.00
2023-05-10T23:10:47.068Z,7.00
2023-05-10T23:13:14.893Z,5.00
2023-05-10T23:15:43.683Z,7.00
2023-05-10T23:18:12.960Z,6.00
2023-05-10T23:20:44.057Z,7.00
2023-05-10T23:23:11.983Z,8.00
2023-05-10T23:25:39.821Z,5.00
2023-05-10T23:28:07.849Z,7.50
2023-05-10T23:30:35.724Z,7.50
2023-05-10T23:33:03.658Z,7.00
2023-05-10T23:35:31.613Z,7.00
2023-05-10T23:37:59.579Z,7.00
2023-05-10T23:40:27.506Z,7.00
2023-05-10T23:42:55.472Z,6.00
2023-05-10T23:45:23.342Z,6.00
2023-05-10T23:47:51.283Z,6.33
2023-05-10T23:50:19.382Z,5.50
2023-05-10T23:52:47.600Z,6.00
2023-05-10T23:55:15.679Z,7.00
2023-05-10T23:57:43.709Z,9.00
